Time;durP1;ratioP1;P1;durP2;ratioP2;P2;SDS_P1;SDS_P2;PMS_P1;PMS_P2;Temp;Humidity;BMP_temperature;BMP_pressure;BME280_temperature;BME280_humidity;BME280_pressure;Samples;Min_cycle;Max_cycle;Signal;HPM_P1;HPM_P2
2022/08/16 00:01:17;;;;;;;;;;;;;;;20.20;100.00;100541.56;5092729;28;19970;-39
2022/08/16 00:03:45;;;;;;;;;;;;;;;20.16;100.00;100550.00;5091173;28;19924;-32
2022/08/16 00:06:13;;;;;;;;;;;;;;;20.12;100.00;100543.44;5092275;28;19920;-37
2022/08/16 00:08:42;;;;;;;;;;;;;;;20.10;100.00;100553.50;5091140;28;19946;-31
2022/08/16 00:11:13;;;;;;;;;;;;;;;20.07;100.00;100557.06;5092151;28;19924;-31
2022/08/16 00:13:42;;;;;;;;;;;;;;;20.04;100.00;100550.13;5092019;28;19920;-35
2022/08/16 00:16:22;;;;;;;;;;;;;;;20.01;100.00;100553.69;5091345;28;19920;-40
2022/08/16 00:19:09;;;;;;;;;;;;;;;19.95;100.00;100558.84;5091900;28;19924;-40
2022/08/16 00:21:40;;;;;;;;;;;;;;;19.91;100.00;100548.63;5092302;28;19924;-33
2022/08/16 00:24:08;;;;;;;;;;;;;;;19.87;100.00;100551.38;5090775;28;19923;-31
2022/08/16 00:26:39;;;;;;;;;;;;;;;19.83;100.00;100543.97;5092197;28;20022;-37
2022/08/16 00:29:13;;;;;;;;;;;;;;;19.79;100.00;100543.88;5091885;28;19946;-34
2022/08/16 00:31:44;;;;;;;;;;;;;;;19.74;100.00;100549.03;5091631;28;19927;-34
2022/08/16 00:34:27;;;;;;;;;;;;;;;19.69;100.00;100543.66;5091778;28;19920;-34
2022/08/16 00:37:15;;;;;;;;;;;;;;;19.63;100.00;100542.28;5089856;28;19920;-33
2022/08/16 00:39:45;;;;;;;;;;;;;;;19.59;100.00;100548.69;5091780;28;19920;-36
2022/08/16 00:42:13;;;;;;;;;;;;;;;19.54;100.00;100551.81;5091373;28;19924;-35
2022/08/16 00:45:00;;;;;;;;;;;;;;;19.49;100.00;100548.41;5093390;28;19924;-34
2022/08/16 00:47:39;;;;;;;;;;;;;;;19.45;100.00;100551.13;5095660;28;19989;-37
2022/08/16 00:50:09;;;;;;;;;;;;;;;19.43;100.00;100555.53;5095017;28;19924;-33
2022/08/16 00:52:40;;;;;;;;;;;;;;;19.40;100.00;100548.56;5094522;28;19920;-42
2022/08/16 00:55:19;;;;;;;;;;;;;;;19.38;100.00;100550.97;5095210;28;19924;-40
2022/08/16 00:57:49;;;;;;;;;;;;;;;19.37;100.00;100540.03;5093359;28;19924;-39
2022/08/16 01:00:28;;;;;;;;;;;;;;;19.35;100.00;100542.41;5095096;28;19982;-37
2022/08/16 01:02:58;;;;;;;;;;;;;;;19.33;100.00;100547.59;5093655;28;20377;-37
2022/08/16 01:05:26;;;;;;;;;;;;;;;19.32;100.00;100541.13;5092915;28;19977;-41
2022/08/16 01:07:56;;;;;;;;;;;;;;;19.31;100.00;100539.47;5095121;28;20370;-33
2022/08/16 01:10:27;;;;;;;;;;;;;;;19.30;100.00;100542.66;5094928;28;20288;-30
2022/08/16 01:13:00;;;;;;;;;;;;;;;19.28;100.00;100540.19;5083779;28;19947;-31
2022/08/16 01:15:31;;;;;;;;;;;;;;;19.26;100.00;100540.56;5094764;28;20401;-32
2022/08/16 01:18:01;;;;;;;;;;;;;;;19.26;100.00;100545.41;5095160;28;20419;-33
2022/08/16 01:20:31;;;;;;;;;;;;;;;19.24;100.00;100542.94;5092456;28;20034;-34
2022/08/16 01:23:06;;;;;;;;;;;;;;;19.26;100.00;100537.72;5093356;28;20010;-32
2022/08/16 01:25:38;;;;;;;;;;;;;;;19.27;100.00;100532.91;5094616;28;20270;-32
2022/08/16 01:28:07;;;;;;;;;;;;;;;19.28;100.00;100534.53;5092383;28;20338;-39
2022/08/16 01:30:37;;;;;;;;;;;;;;;19.28;100.00;100528.88;5094643;28;19920;-32
2022/08/16 01:33:17;;;;;;;;;;;;;;;19.33;100.00;100531.44;5090147;28;19942;-33
2022/08/16 01:35:50;;;;;;;;;;;;;;;19.41;100.00;100532.41;5093173;28;19962;-31
2022/08/16 01:38:21;;;;;;;;;;;;;;;19.50;100.00;100530.25;5091478;28;19920;-31
2022/08/16 01:40:58;;;;;;;;;;;;;;;19.60;100.00;100530.50;5092518;28;19920;-37
2022/08/16 01:43:30;;;;;;;;;;;;;;;19.70;100.00;100523.47;5089744;28;19946;-31
2022/08/16 01:45:59;;;;;;;;;;;;;;;19.81;100.00;100524.53;5092814;28;19931;-34
2022/08/16 01:48:47;;;;;;;;;;;;;;;19.91;100.00;100525.97;5091906;28;19920;-32
2022/08/16 01:51:16;;;;;;;;;;;;;;;19.97;100.00;100523.66;5093007;28;19967;-31
2022/08/16 01:53:44;;;;;;;;;;;;;;;20.04;100.00;100524.63;5092094;28;19927;-31
2022/08/16 01:56:31;;;;;;;;;;;;;;;20.09;100.00;100518.69;5092695;28;20392;-35
2022/08/16 01:59:02;;;;;;;;;;;;;;;20.14;100.00;100526.06;5089392;28;19920;-31
2022/08/16 02:01:31;;;;;;;;;;;;;;;20.14;100.00;100521.22;5091717;28;19926;-40
2022/08/16 02:04:00;;;;;;;;;;;;;;;20.16;100.00;100530.16;5094013;28;19920;-31
2022/08/16 02:06:39;;;;;;;;;;;;;;;20.18;100.00;100527.75;5094048;28;19999;-31
2022/08/16 02:09:14;;;;;;;;;;;;;;;20.15;100.00;100522.88;5091054;28;19924;-32
2022/08/16 02:11:49;;;;;;;;;;;;;;;20.11;100.00;100526.81;5092585;28;19961;-32
2022/08/16 02:14:21;;;;;;;;;;;;;;;20.05;100.00;100534.78;5092388;28;20369;-35
2022/08/16 02:16:56;;;;;;;;;;;;;;;20.00;100.00;100531.41;5091877;28;19927;-33
2022/08/16 02:19:26;;;;;;;;;;;;;;;19.97;100.00;100530.16;5092012;28;19928;-32
2022/08/16 02:22:15;;;;;;;;;;;;;;;19.95;100.00;100529.69;5091342;28;19934;-32
2022/08/16 02:25:05;;;;;;;;;;;;;;;19.92;100.00;100525.59;5093557;28;19946;-31
2022/08/16 02:27:36;;;;;;;;;;;;;;;19.90;100.00;100522.31;5093409;28;20019;-41
2022/08/16 02:30:04;;;;;;;;;;;;;;;19.88;100.00;100523.88;5088067;28;20469;-31
2022/08/16 02:32:33;;;;;;;;;;;;;;;19.85;100.00;100513.28;5091996;28;19926;-32
2022/08/16 02:35:20;;;;;;;;;;;;;;;19.81;100.00;100512.38;5089682;28;19973;-31
2022/08/16 02:37:50;;;;;;;;;;;;;;;19.76;100.00;100513.50;5091109;28;19928;-38
2022/08/16 02:40:24;;;;;;;;;;;;;;;19.72;100.00;100509.75;5092620;28;19942;-33
2022/08/16 02:42:54;;;;;;;;;;;;;;;19.70;100.00;100511.31;5091845;28;19919;-31
2022/08/16 02:45:24;;;;;;;;;;;;;;;19.68;100.00;100508.03;5090953;28;19962;-31
2022/08/16 02:47:56;;;;;;;;;;;;;;;19.67;100.00;100509.22;5092201;28;19959;-33
2022/08/16 02:50:43;;;;;;;;;;;;;;;19.66;100.00;100510.41;5091075;28;20293;-31
2022/08/16 02:53:31;;;;;;;;;;;;;;;19.65;100.00;100506.75;5091444;28;20014;-38
2022/08/16 02:55:59;;;;;;;;;;;;;;;19.65;100.00;100503.94;5093150;28;19935;-31
2022/08/16 02:58:32;;;;;;;;;;;;;;;19.65;100.00;100505.94;5090821;28;19973;-31
2022/08/16 03:01:00;;;;;;;;;;;;;;;19.59;100.00;100500.56;5091460;28;19920;-31
2022/08/16 03:03:29;;;;;;;;;;;;;;;19.53;100.00;100504.88;5091686;28;19924;-32
2022/08/16 03:06:19;;;;;;;;;;;;;;;19.47;100.00;100503.47;5090806;28;19923;-34
2022/08/16 03:09:14;;;;;;;;;;;;;;;19.44;100.00;100503.41;5091622;28;20015;-31
2022/08/16 03:11:47;;;;;;;;;;;;;;;19.41;100.00;100509.78;5090773;28;19966;-31
2022/08/16 03:14:18;;;;;;;;;;;;;;;19.38;100.00;100500.03;5091115;28;19934;-31
2022/08/16 03:16:54;;;;;;;;;;;;;;;19.38;100.00;100507.72;5091539;28;19985;-31
2022/08/16 03:19:33;;;;;;;;;;;;;;;19.36;100.00;100498.78;5090602;28;19934;-38
2022/08/16 03:22:21;;;;;;;;;;;;;;;19.34;100.00;100504.78;5091436;28;19967;-33
2022/08/16 03:24:57;;;;;;;;;;;;;;;19.32;100.00;100506.34;5090946;28;19978;-32
2022/08/16 03:27:28;;;;;;;;;;;;;;;19.28;100.00;100500.59;5090524;28;20015;-31
2022/08/16 03:30:01;;;;;;;;;;;;;;;19.24;100.00;100496.84;5090252;28;20012;-37
2022/08/16 03:32:45;;;;;;;;;;;;;;;19.20;100.00;100487.44;5075679;28;19951;-38
2022/08/16 03:35:15;;;;;;;;;;;;;;;19.17;100.00;100493.88;5074385;28;19946;-31
2022/08/16 03:37:45;;;;;;;;;;;;;;;19.15;100.00;100496.22;5089590;28;20023;-31
2022/08/16 03:40:32;;;;;;;;;;;;;;;19.13;100.00;100498.59;5088929;28;19927;-32
2022/08/16 03:43:01;;;;;;;;;;;;;;;19.09;100.00;100504.16;5089704;28;19926;-31
2022/08/16 03:45:49;;;;;;;;;;;;;;;19.06;100.00;100518.22;5089904;28;19946;-30
2022/08/16 03:48:22;;;;;;;;;;;;;;;19.05;100.00;100510.91;5090406;28;19927;-32
2022/08/16 03:51:12;;;;;;;;;;;;;;;19.02;100.00;100509.63;5090825;28;19959;-31
2022/08/16 03:53:48;;;;;;;;;;;;;;;19.00;100.00;100506.34;5090055;28;20304;-30
2022/08/16 03:56:30;;;;;;;;;;;;;;;19.00;100.00;100514.00;5091852;28;19928;-33
2022/08/16 03:58:58;;;;;;;;;;;;;;;19.00;100.00;100505.53;5092506;28;19970;-33
2022/08/16 04:01:34;;;;;;;;;;;;;;;18.99;100.00;100499.03;5089834;28;19920;-31
2022/08/16 04:04:01;;;;;;;;;;;;;;;18.99;100.00;100498.22;5090355;28;20023;-35
2022/08/16 04:06:30;;;;;;;;;;;;;;;19.03;100.00;100502.78;5089960;28;19931;-31
2022/08/16 04:08:58;;;;;;;;;;;;;;;19.18;100.00;100506.81;5088040;28;19928;-38
2022/08/16 04:11:27;;;;;;;;;;;;;;;19.33;100.00;100510.81;5090397;28;20020;-36
2022/08/16 04:14:03;;;;;;;;;;;;;;;19.43;100.00;100511.06;5090755;28;20022;-34
2022/08/16 04:16:54;;;;;;;;;;;;;;;19.53;100.00;100509.72;5087961;28;20335;-32
2022/08/16 04:19:36;;;;;;;;;;;;;;;19.60;100.00;100509.88;5103082;28;20377;-31
2022/08/16 04:22:12;;;;;;;;;;;;;;;19.65;100.00;100512.41;5092588;28;20369;-38
2022/08/16 04:24:47;;;;;;;;;;;;;;;19.72;100.00;100514.59;5093508;28;20020;-31
2022/08/16 04:27:25;;;;;;;;;;;;;;;19.77;100.00;100520.81;5093021;28;20458;-31
2022/08/16 04:29:59;;;;;;;;;;;;;;;19.82;100.00;100526.16;5092514;28;19924;-33
2022/08/16 04:32:36;;;;;;;;;;;;;;;19.88;100.00;100523.88;5092996;28;20389;-39
2022/08/16 04:35:12;;;;;;;;;;;;;;;19.92;100.00;100527.59;5094247;28;19924;-36
2022/08/16 04:37:43;;;;;;;;;;;;;;;19.97;100.00;100527.31;5092076;28;19939;-38
2022/08/16 04:40:18;;;;;;;;;;;;;;;20.02;100.00;100520.53;5094644;28;19920;-31
2022/08/16 04:42:49;;;;;;;;;;;;;;;20.04;100.00;100524.63;5091850;28;20010;-31
2022/08/16 04:45:17;;;;;;;;;;;;;;;20.06;100.00;100536.41;5093090;28;19920;-33
2022/08/16 04:48:09;;;;;;;;;;;;;;;20.08;100.00;100539.69;5090526;28;19920;-31
2022/08/16 04:50:46;;;;;;;;;;;;;;;20.12;100.00;100546.25;5092598;28;19928;-32
2022/08/16 04:53:17;;;;;;;;;;;;;;;20.14;100.00;100543.88;5091717;28;19924;-32
2022/08/16 04:55:48;;;;;;;;;;;;;;;20.17;100.00;100548.81;5092866;28;20014;-31
2022/08/16 04:58:21;;;;;;;;;;;;;;;20.22;100.00;100557.00;5091607;28;19920;-31
2022/08/16 05:01:08;;;;;;;;;;;;;;;20.25;100.00;100561.94;5094132;28;19920;-31
2022/08/16 05:03:39;;;;;;;;;;;;;;;20.28;100.00;100551.88;5092498;28;19924;-31
2022/08/16 05:06:28;;;;;;;;;;;;;;;20.29;100.00;100559.16;5092303;28;19924;-34
2022/08/16 05:09:38;;;;;;;;;;;;;;;20.30;100.00;100563.66;5092564;28;19920;-31
2022/08/16 05:12:11;;;;;;;;;;;;;;;20.30;100.00;100558.81;5071744;28;19967;-31
2022/08/16 05:14:44;;;;;;;;;;;;;;;20.32;100.00;100566.13;5087895;28;19920;-35
2022/08/16 05:17:34;;;;;;;;;;;;;;;20.32;100.00;100568.94;5088916;28;19920;-32
2022/08/16 05:20:08;;;;;;;;;;;;;;;20.30;100.00;100570.13;5088724;28;19966;-42
2022/08/16 05:22:57;;;;;;;;;;;;;;;20.32;100.00;100583.94;5092695;28;19975;-34
2022/08/16 05:25:26;;;;;;;;;;;;;;;20.30;100.00;100589.97;5090792;28;20312;-35
2022/08/16 05:28:09;;;;;;;;;;;;;;;20.33;100.00;100579.91;5091327;28;19930;-34
2022/08/16 05:30:41;;;;;;;;;;;;;;;20.33;100.00;100585.59;5091153;28;20034;-39
2022/08/16 05:33:15;;;;;;;;;;;;;;;20.32;100.00;100581.09;5090951;28;19954;-40
2022/08/16 05:35:49;;;;;;;;;;;;;;;20.34;100.00;100578.72;5091016;28;19923;-31
2022/08/16 05:38:29;;;;;;;;;;;;;;;20.36;100.00;100579.19;5091845;28;20286;-41
2022/08/16 05:41:08;;;;;;;;;;;;;;;20.39;100.00;100580.44;5090674;28;19920;-33
2022/08/16 05:43:42;;;;;;;;;;;;;;;20.39;100.00;100577.59;5092820;28;19927;-39
2022/08/16 05:46:21;;;;;;;;;;;;;;;20.39;100.00;100583.28;5088829;28;19957;-37
2022/08/16 05:49:02;;;;;;;;;;;;;;;20.44;100.00;100592.31;5091907;28;19928;-31
2022/08/16 05:51:36;;;;;;;;;;;;;;;20.51;100.00;100588.81;5090839;28;19924;-32
2022/08/16 05:54:07;;;;;;;;;;;;;;;20.57;100.00;100587.34;5090954;28;20365;-31
2022/08/16 05:56:40;;;;;;;;;;;;;;;20.62;100.00;100598.34;5091293;28;20404;-32
2022/08/16 05:59:09;;;;;;;;;;;;;;;20.69;100.00;100592.03;5091743;28;19920;-32
2022/08/16 06:01:38;;;;;;;;;;;;;;;20.75;100.00;100594.19;5090275;28;20015;-32
2022/08/16 06:04:07;;;;;;;;;;;;;;;20.82;100.00;100607.66;5091753;28;19959;-33
2022/08/16 06:06:57;;;;;;;;;;;;;;;20.86;100.00;100609.38;5090665;28;19920;-31
2022/08/16 06:09:29;;;;;;;;;;;;;;;20.92;100.00;100610.72;5090678;28;19924;-32
2022/08/16 06:12:10;;;;;;;;;;;;;;;20.96;100.00;100614.47;5091092;28;19924;-31
2022/08/16 06:14:38;;;;;;;;;;;;;;;21.02;100.00;100617.78;5092212;28;20266;-39
2022/08/16 06:17:07;;;;;;;;;;;;;;;21.07;100.00;100623.16;5089892;28;19931;-31
2022/08/16 06:19:41;;;;;;;;;;;;;;;21.13;100.00;100613.16;5090421;28;20385;-31
2022/08/16 06:22:15;;;;;;;;;;;;;;;21.22;100.00;100621.44;5090119;28;20443;-31
2022/08/16 06:25:03;;;;;;;;;;;;;;;21.29;100.00;100613.06;5090479;28;19931;-32
2022/08/16 06:27:31;;;;;;;;;;;;;;;21.35;100.00;100617.25;5091765;28;20484;-31
2022/08/16 06:30:08;;;;;;;;;;;;;;;21.38;100.00;100613.66;5089812;28;19989;-31
2022/08/16 06:32:36;;;;;;;;;;;;;;;21.43;100.00;100632.38;5089746;28;20065;-32
2022/08/16 06:35:16;;;;;;;;;;;;;;;21.45;100.00;100625.13;5090880;28;19924;-34
2022/08/16 06:37:47;;;;;;;;;;;;;;;21.51;100.00;100622.78;5089925;28;19924;-36
2022/08/16 06:40:19;;;;;;;;;;;;;;;21.59;100.00;100628.19;5089944;28;19924;-30
2022/08/16 06:42:51;;;;;;;;;;;;;;;21.73;100.00;100623.97;5089099;28;19933;-36
2022/08/16 06:45:31;;;;;;;;;;;;;;;21.82;100.00;100633.84;5070219;28;20447;-41
2022/08/16 06:48:06;;;;;;;;;;;;;;;21.87;100.00;100641.25;5086017;28;19924;-38
2022/08/16 06:50:36;;;;;;;;;;;;;;;21.92;100.00;100649.44;5089347;28;20372;-33
2022/08/16 06:53:09;;;;;;;;;;;;;;;21.89;100.00;100638.84;5089501;28;20351;-31
2022/08/16 06:55:51;;;;;;;;;;;;;;;21.89;100.00;100653.06;5069690;28;20377;-37
2022/08/16 06:58:22;;;;;;;;;;;;;;;21.97;100.00;100646.28;5086959;28;19926;-39
2022/08/16 07:01:07;;;;;;;;;;;;;;;22.24;100.00;100647.94;5090013;28;19920;-36
2022/08/16 07:03:42;;;;;;;;;;;;;;;22.63;100.00;100647.66;5089684;28;20377;-31
2022/08/16 07:06:30;;;;;;;;;;;;;;;22.86;100.00;100647.59;5090511;28;20372;-34
2022/08/16 07:09:01;;;;;;;;;;;;;;;23.11;100.00;100648.72;5089710;28;20050;-36
2022/08/16 07:11:37;;;;;;;;;;;;;;;23.53;100.00;100653.25;5087216;28;20369;-41
2022/08/16 07:14:22;;;;;;;;;;;;;;;23.87;100.00;100659.66;5090109;28;19920;-32
2022/08/16 07:16:57;;;;;;;;;;;;;;;24.01;100.00;100662.59;5091097;28;20296;-32
2022/08/16 07:19:27;;;;;;;;;;;;;;;24.15;100.00;100662.72;5090478;28;19920;-32
2022/08/16 07:22:16;;;;;;;;;;;;;;;24.29;100.00;100656.31;5091166;28;19924;-33
2022/08/16 07:25:07;;;;;;;;;;;;;;;24.42;100.00;100662.50;5077542;28;19924;-36
2022/08/16 07:27:34;;;;;;;;;;;;;;;24.52;100.00;100667.47;5091269;28;19920;-32
2022/08/16 07:30:08;;;;;;;;;;;;;;;24.58;100.00;100665.88;5091426;28;19920;-37
2022/08/16 07:32:58;;;;;;;;;;;;;;;24.82;100.00;100670.88;5090469;28;20026;-33
2022/08/16 07:35:27;;;;;;;;;;;;;;;25.16;100.00;100670.66;5091339;28;19934;-32
2022/08/16 07:37:54;;;;;;;;;;;;;;;25.45;100.00;100675.19;5091162;28;19920;-33
2022/08/16 07:40:37;;;;;;;;;;;;;;;25.58;100.00;100685.00;5088334;28;19928;-43
2022/08/16 07:43:25;;;;;;;;;;;;;;;25.62;100.00;100685.00;5090960;28;20286;-40
2022/08/16 07:45:58;;;;;;;;;;;;;;;25.85;100.00;100678.94;5090470;28;20647;-33
2022/08/16 07:48:29;;;;;;;;;;;;;;;26.27;100.00;100678.94;5090862;28;19966;-35
2022/08/16 07:50:57;;;;;;;;;;;;;;;26.52;100.00;100681.78;5090900;28;20310;-37
2022/08/16 07:53:31;;;;;;;;;;;;;;;26.91;99.68;100678.78;5093198;28;19928;-33
2022/08/16 07:56:00;;;;;;;;;;;;;;;26.96;97.81;100680.44;5095078;28;20377;-37
2022/08/16 07:58:35;;;;;;;;;;;;;;;26.83;97.91;100674.31;5094949;28;19959;-36
2022/08/16 08:01:12;;;;;;;;;;;;;;;26.88;99.86;100673.88;5092044;28;19988;-31
2022/08/16 08:03:54;;;;;;;;;;;;;;;26.88;96.29;100665.31;5094709;28;19981;-37
2022/08/16 08:06:28;;;;;;;;;;;;;;;27.05;99.51;100677.94;5094891;28;19927;-32
2022/08/16 08:09:02;;;;;;;;;;;;;;;27.18;94.23;100672.56;5094151;28;19981;-32
2022/08/16 08:11:31;;;;;;;;;;;;;;;27.27;97.74;100679.47;5096019;28;19920;-34
2022/08/16 08:14:02;;;;;;;;;;;;;;;27.50;94.55;100687.53;5093960;28;19971;-33
2022/08/16 08:16:38;;;;;;;;;;;;;;;27.65;93.82;100694.81;5092015;28;20335;-34
2022/08/16 08:19:19;;;;;;;;;;;;;;;27.92;93.92;100694.22;5094628;28;19959;-35
2022/08/16 08:21:48;;;;;;;;;;;;;;;28.21;90.74;100689.88;5093864;28;20026;-40
2022/08/16 08:24:46;;;;;;;;;;;;;;;28.54;87.44;100696.13;5094274;28;19931;-34
2022/08/16 08:27:15;;;;;;;;;;;;;;;28.68;87.63;100698.84;5094436;28;19920;-33
2022/08/16 08:29:51;;;;;;;;;;;;;;;28.82;85.74;100701.59;5093592;28;19923;-34
2022/08/16 08:32:40;;;;;;;;;;;;;;;29.01;81.73;100703.81;5094503;28;19920;-33
2022/08/16 08:35:25;;;;;;;;;;;;;;;28.73;82.72;100712.75;5093621;28;19920;-34
2022/08/16 08:37:55;;;;;;;;;;;;;;;28.72;84.97;100711.94;5094384;28;19988;-33
2022/08/16 08:40:26;;;;;;;;;;;;;;;29.02;80.33;100716.94;5094258;28;19927;-38
2022/08/16 08:42:57;;;;;;;;;;;;;;;28.98;82.31;100735.44;5082609;28;19963;-35
2022/08/16 08:45:48;;;;;;;;;;;;;;;29.17;82.00;100731.16;5094016;28;19924;-38
2022/08/16 08:48:22;;;;;;;;;;;;;;;29.05;79.21;100736.19;5093979;28;19927;-39
2022/08/16 08:51:10;;;;;;;;;;;;;;;28.89;79.31;100738.84;5093076;28;20338;-37
2022/08/16 08:53:47;;;;;;;;;;;;;;;28.67;80.33;100737.41;5093363;28;19969;-39
2022/08/16 08:56:28;;;;;;;;;;;;;;;28.46;82.56;100741.31;5093134;28;19998;-34
2022/08/16 08:59:05;;;;;;;;;;;;;;;28.60;82.42;100746.09;5094170;28;20307;-40
2022/08/16 09:01:44;;;;;;;;;;;;;;;28.81;82.67;100754.53;5093719;28;19927;-34
2022/08/16 09:04:26;;;;;;;;;;;;;;;28.71;80.99;100755.44;5094071;28;19928;-35
2022/08/16 09:06:54;;;;;;;;;;;;;;;28.70;82.16;100765.28;5093301;28;20269;-43
2022/08/16 09:09:23;;;;;;;;;;;;;;;28.61;81.20;100762.09;5094056;28;20400;-34
2022/08/16 09:11:56;;;;;;;;;;;;;;;28.78;82.85;100764.78;5092702;28;19920;-36
2022/08/16 09:14:44;;;;;;;;;;;;;;;28.96;81.42;100766.69;5093607;28;20379;-37
2022/08/16 09:17:21;;;;;;;;;;;;;;;29.21;81.09;100760.63;5092632;28;19931;-39
2022/08/16 09:20:12;;;;;;;;;;;;;;;29.46;77.02;100769.78;5093597;28;19927;-38
2022/08/16 09:22:40;;;;;;;;;;;;;;;29.56;77.59;100782.41;5093156;28;19924;-35
2022/08/16 09:25:10;;;;;;;;;;;;;;;29.64;75.86;100773.25;5092542;28;19920;-34
2022/08/16 09:27:41;;;;;;;;;;;;;;;29.70;73.40;100780.16;5093092;28;19920;-34
2022/08/16 09:30:26;;;;;;;;;;;;;;;29.85;75.36;100780.75;5093906;28;20455;-35
2022/08/16 09:33:01;;;;;;;;;;;;;;;30.20;70.59;100787.22;5093759;28;20010;-33
2022/08/16 09:35:29;;;;;;;;;;;;;;;30.41;68.20;100787.69;5094464;28;19927;-33
2022/08/16 09:37:57;;;;;;;;;;;;;;;30.66;70.42;100786.47;5094305;28;19924;-33
2022/08/16 09:40:27;;;;;;;;;;;;;;;30.83;65.20;100785.34;5093824;28;19920;-32
2022/08/16 09:43:08;;;;;;;;;;;;;;;31.09;65.17;100790.19;5093970;28;19955;-38
2022/08/16 09:45:42;;;;;;;;;;;;;;;31.09;65.06;100787.31;5093460;28;20388;-38
2022/08/16 09:48:11;;;;;;;;;;;;;;;31.40;67.05;100795.75;5093431;28;19927;-35
2022/08/16 09:50:59;;;;;;;;;;;;;;;31.66;61.82;100791.94;5093840;28;20304;-35
2022/08/16 09:53:29;;;;;;;;;;;;;;;31.70;59.94;100792.69;5092468;28;19959;-36
2022/08/16 09:55:56;;;;;;;;;;;;;;;31.45;61.81;100803.91;5093454;28;19970;-33
2022/08/16 09:58:26;;;;;;;;;;;;;;;31.34;60.05;100797.56;5092715;28;19931;-39
2022/08/16 10:01:15;;;;;;;;;;;;;;;31.40;60.75;100793.69;5092433;28;19927;-41
2022/08/16 10:03:42;;;;;;;;;;;;;;;31.74;62.36;100793.41;5093224;28;19963;-32
2022/08/16 10:06:29;;;;;;;;;;;;;;;32.23;56.19;100799.28;5091653;28;20285;-40
2022/08/16 10:09:01;;;;;;;;;;;;;;;32.01;56.04;100798.16;5093411;28;19920;-36
2022/08/16 10:14:18;;;;;;;;;;;;;;;31.66;59.70;100799.78;5092592;28;19920;-37
2022/08/16 10:16:52;;;;;;;;;;;;;;;31.55;60.75;100808.66;5093455;28;20293;-40
2022/08/16 10:19:29;;;;;;;;;;;;;;;31.64;58.28;100808.84;5093251;28;19920;-40
2022/08/16 10:21:58;;;;;;;;;;;;;;;31.66;59.74;100817.91;5093004;28;19974;-36
2022/08/16 10:24:32;;;;;;;;;;;;;;;31.73;60.88;100819.81;5092540;28;19967;-38
2022/08/16 10:27:00;;;;;;;;;;;;;;;31.73;59.33;100817.75;5092767;28;19924;-33
2022/08/16 10:29:47;;;;;;;;;;;;;;;31.55;60.00;100810.72;5092238;28;19965;-36
2022/08/16 10:32:34;;;;;;;;;;;;;;;31.36;59.36;100818.13;5093029;28;20336;-39
2022/08/16 10:35:06;;;;;;;;;;;;;;;31.32;61.78;100814.50;5090203;28;19934;-38
2022/08/16 10:37:34;;;;;;;;;;;;;;;31.59;61.31;100808.53;5091985;28;19919;-34
2022/08/16 10:40:03;;;;;;;;;;;;;;;31.77;59.84;100826.34;5091533;28;20131;-32
2022/08/16 10:42:31;;;;;;;;;;;;;;;31.74;59.63;100813.63;5092557;28;19931;-32
2022/08/16 10:45:01;;;;;;;;;;;;;;;31.59;60.92;100815.13;5092914;28;19931;-33
2022/08/16 10:47:29;;;;;;;;;;;;;;;31.59;62.13;100822.97;5091762;28;20399;-38
2022/08/16 10:50:07;;;;;;;;;;;;;;;31.68;61.07;100826.13;5092019;28;20539;-33
2022/08/16 10:52:46;;;;;;;;;;;;;;;31.76;58.91;100828.41;5093115;28;20430;-33
2022/08/16 10:55:16;;;;;;;;;;;;;;;31.78;58.63;100825.06;5092895;28;19935;-36
2022/08/16 10:58:05;;;;;;;;;;;;;;;31.98;58.96;100825.84;5092983;28;19920;-36
2022/08/16 11:00:39;;;;;;;;;;;;;;;32.03;57.70;100827.38;5092802;28;20385;-32
2022/08/16 11:03:08;;;;;;;;;;;;;;;32.18;59.07;100831.56;5092034;28;20306;-32
2022/08/16 11:05:57;;;;;;;;;;;;;;;32.35;57.33;100830.38;5092741;28;19924;-32
2022/08/16 11:08:26;;;;;;;;;;;;;;;32.59;55.25;100836.75;5093014;28;19931;-33
2022/08/16 11:11:03;;;;;;;;;;;;;;;32.73;54.78;100839.34;5091890;28;20014;-34
2022/08/16 11:13:47;;;;;;;;;;;;;;;32.75;53.47;100844.66;5093105;28;20006;-32
2022/08/16 11:16:34;;;;;;;;;;;;;;;32.84;52.72;100844.81;5092534;28;19920;-41
2022/08/16 11:19:22;;;;;;;;;;;;;;;32.97;52.44;100842.03;5092603;28;19927;-38
2022/08/16 11:21:52;;;;;;;;;;;;;;;33.17;52.29;100857.97;5092251;28;19919;-35
2022/08/16 11:24:40;;;;;;;;;;;;;;;33.33;50.39;100853.47;5072043;28;19924;-37
2022/08/16 11:27:11;;;;;;;;;;;;;;;33.15;49.27;100854.75;5088192;28;19927;-33
2022/08/16 11:29:52;;;;;;;;;;;;;;;32.89;51.08;100852.16;5072384;28;19932;-33
2022/08/16 11:32:21;;;;;;;;;;;;;;;32.94;51.70;100854.50;5087332;28;19928;-34
2022/08/16 11:35:00;;;;;;;;;;;;;;;33.04;52.98;100857.09;5072187;28;20259;-33
2022/08/16 11:37:43;;;;;;;;;;;;;;;33.31;51.22;100859.69;5089364;28;20357;-38
2022/08/16 11:40:31;;;;;;;;;;;;;;;33.63;48.29;100864.56;5092430;28;20361;-35
2022/08/16 11:43:00;;;;;;;;;;;;;;;33.75;48.21;100862.97;5092198;28;19946;-39
2022/08/16 11:45:27;;;;;;;;;;;;;;;33.78;47.59;100862.88;5091867;28;19989;-37
2022/08/16 11:48:00;;;;;;;;;;;;;;;33.76;47.87;100865.41;5092204;28;19927;-35
2022/08/16 11:50:32;;;;;;;;;;;;;;;33.66;48.02;100872.31;5092313;28;19920;-34
2022/08/16 11:53:01;;;;;;;;;;;;;;;33.67;47.75;100870.25;5091259;28;19924;-34
2022/08/16 11:55:31;;;;;;;;;;;;;;;33.46;47.74;100865.88;5092626;28;19924;-34
2022/08/16 11:58:00;;;;;;;;;;;;;;;33.33;49.68;100873.72;5092096;28;19923;-40
2022/08/16 12:00:28;;;;;;;;;;;;;;;33.28;48.16;100889.53;5091786;28;20293;-34
2022/08/16 12:03:15;;;;;;;;;;;;;;;32.85;49.61;100884.03;5092148;28;19932;-39
2022/08/16 12:05:44;;;;;;;;;;;;;;;32.69;50.71;100878.22;5091135;28;19927;-33
2022/08/16 12:08:14;;;;;;;;;;;;;;;32.78;51.44;100896.59;5091290;28;19920;-32
2022/08/16 12:10:45;;;;;;;;;;;;;;;32.86;50.46;100891.44;5092219;28;19927;-38
2022/08/16 12:13:14;;;;;;;;;;;;;;;32.90;49.63;100895.06;5091155;28;19989;-41
2022/08/16 12:15:42;;;;;;;;;;;;;;;32.93;50.17;100896.25;5092221;28;19920;-38
2022/08/16 12:18:13;;;;;;;;;;;;;;;32.89;49.11;100896.31;5091819;28;19965;-37
2022/08/16 12:20:47;;;;;;;;;;;;;;;32.65;50.86;100891.94;5091500;28;19935;-33
2022/08/16 12:23:16;;;;;;;;;;;;;;;32.67;50.19;100895.22;5091946;28;19926;-41
2022/08/16 12:25:44;;;;;;;;;;;;;;;32.80;49.69;100916.38;5091866;28;19920;-33
2022/08/16 12:28:12;;;;;;;;;;;;;;;32.88;48.38;100914.13;5090941;28;20376;-34
2022/08/16 12:30:41;;;;;;;;;;;;;;;32.84;48.89;100908.44;5091820;28;19920;-39
2022/08/16 12:33:10;;;;;;;;;;;;;;;32.85;48.35;100915.84;5091838;28;19920;-38
2022/08/16 12:35:39;;;;;;;;;;;;;;;32.89;49.38;100916.56;5090235;28;19928;-37
2022/08/16 12:38:07;;;;;;;;;;;;;;;32.89;47.87;100919.47;5092348;28;19931;-32
2022/08/16 12:40:57;;;;;;;;;;;;;;;32.79;48.66;100924.22;5085040;28;19920;-38
2022/08/16 12:43:24;;;;;;;;;;;;;;;32.85;49.44;100918.72;5094825;28;20036;-42
2022/08/16 12:45:58;;;;;;;;;;;;;;;32.89;48.29;100924.44;5084299;28;19924;-44
2022/08/16 12:51:17;;;;;;;;;;;;;;;33.00;48.27;100922.06;5083931;28;19920;-38
2022/08/16 12:53:51;;;;;;;;;;;;;;;32.96;47.14;100922.19;5095174;28;19934;-39
2022/08/16 12:56:20;;;;;;;;;;;;;;;32.81;47.75;100930.38;5083821;28;20399;-34
2022/08/16 12:58:52;;;;;;;;;;;;;;;32.82;48.43;100929.13;5095043;28;20468;-36
2022/08/16 13:01:25;;;;;;;;;;;;;;;32.91;47.64;100928.50;5093936;28;19998;-32
2022/08/16 13:03:54;;;;;;;;;;;;;;;33.00;47.11;100937.34;5094191;28;19935;-32
2022/08/16 13:06:43;;;;;;;;;;;;;;;33.08;46.72;100938.78;5084360;28;19920;-32
2022/08/16 13:09:23;;;;;;;;;;;;;;;33.14;47.18;100939.06;5094350;28;19920;-33
2022/08/16 13:12:02;;;;;;;;;;;;;;;33.13;46.19;100940.31;5094282;28;19920;-33
2022/08/16 13:14:35;;;;;;;;;;;;;;;33.07;48.30;100937.16;5093525;28;20315;-33
2022/08/16 13:17:03;;;;;;;;;;;;;;;33.02;48.54;100946.38;5091237;28;20389;-38